Bethany, Oklahoma
Current Conditions -  °F | °C
As of 6:53 PM on Monday 26 Jan 2015 (Local Time) from KPWA Reporting Station
Clear Clear  
Wind Chill: 62°   Ceiling: Unl
Heat Index: 62°   Visibility: 10mi
Dew Point: 34°   Wind: 0mph
Humidity: 35%   Direction: NA
Pressure: 30.06"   Gusts: NA
Location:  35.51°N, 97.63°W
Report Text: KPWA 270053Z 00000KT 10SM CLR 17/01 A3006 RMK AO2 SLP178 T01670011
Loading
Personal Weather Stations






























Interactive Weather Map New forecast layout! Learn more

10-Day Weather Forecast

Advertisements
Track Severe Weather on mobile